Time;durP1;ratioP1;P1;durP2;ratioP2;P2;SDS_P1;SDS_P2;PMS_P1;PMS_P2;Temp;Humidity;BMP_temperature;BMP_pressure;BME280_temperature;BME280_humidity;BME280_pressure;Samples;Min_cycle;Max_cycle;Signal;HPM_P1;HPM_P2
2023/08/31 00:01:40;;;;;;;;;;;;;;;;;;4871289;29;19928;-79
2023/08/31 00:04:08;;;;;;;;;;;;;;;;;;4868461;29;20296;-79
2023/08/31 00:06:33;;;;;;;;;;;;;;;;;;4849637;29;20002;-79
2023/08/31 00:08:59;;;;;;;;;;;;;;;;;;4868754;29;20031;-80
2023/08/31 00:11:25;;;;;;;;;;;;;;;;;;4865577;29;20624;-79
2023/08/31 00:13:52;;;;;;;;;;;;;;;;;;4850549;29;19920;-79
2023/08/31 00:16:17;;;;;;;;;;;;;;;;;;4842790;29;20509;-78
2023/08/31 00:18:44;;;;;;;;;;;;;;;;;;4847474;29;20005;-78
2023/08/31 00:21:13;;;;;;;;;;;;;;;;;;4857397;29;19920;-78
2023/08/31 00:23:38;;;;;;;;;;;;;;;;;;4847088;29;19943;-79
2023/08/31 00:26:05;;;;;;;;;;;;;;;;;;4865239;29;19924;-79
2023/08/31 00:28:30;;;;;;;;;;;;;;;;;;4864873;29;19916;-80
2023/08/31 00:30:55;;;;;;;;;;;;;;;;;;4868283;29;20766;-80
2023/08/31 00:33:21;;;;;;;;;;;;;;;;;;4867723;29;19919;-79
2023/08/31 00:35:49;;;;;;;;;;;;;;;;;;4849861;29;19976;-78
2023/08/31 00:38:14;;;;;;;;;;;;;;;;;;4850703;29;19919;-78
2023/08/31 00:40:44;;;;;;;;;;;;;;;;;;4857466;29;19950;-79
2023/08/31 00:43:10;;;;;;;;;;;;;;;;;;4847750;29;19983;-78
2023/08/31 00:45:35;;;;;;;;;;;;;;;;;;4867079;29;19927;-80
2023/08/31 00:48:01;;;;;;;;;;;;;;;;;;4850740;29;19920;-79
2023/08/31 00:50:26;;;;;;;;;;;;;;;;;;4847375;29;19935;-78
2023/08/31 00:52:52;;;;;;;;;;;;;;;;;;4849609;29;19920;-79
2023/08/31 00:55:17;;;;;;;;;;;;;;;;;;4868128;29;19931;-78
2023/08/31 00:57:43;;;;;;;;;;;;;;;;;;4849127;29;20620;-80
2023/08/31 01:00:08;;;;;;;;;;;;;;;;;;4861657;29;20356;-79
2023/08/31 01:02:37;;;;;;;;;;;;;;;;;;4848144;29;19928;-78
2023/08/31 01:05:05;;;;;;;;;;;;;;;;;;4860709;29;19919;-78
2023/08/31 01:07:39;;;;;;;;;;;;;;;;;;4875047;29;20368;-79
2023/08/31 01:10:10;;;;;;;;;;;;;;;;;;4861611;29;20376;-78
2023/08/31 01:12:55;;;;;;;;;;;;;;;;;;4865183;29;19915;-79
2023/08/31 01:15:20;;;;;;;;;;;;;;;;;;4840150;29;20323;-78
2023/08/31 01:17:47;;;;;;;;;;;;;;;;;;4848697;29;19927;-78
2023/08/31 01:20:13;;;;;;;;;;;;;;;;;;4847469;29;19927;-79
2023/08/31 01:22:42;;;;;;;;;;;;;;;;;;4845128;29;19919;-78
2023/08/31 01:25:09;;;;;;;;;;;;;;;;;;4846507;29;20006;-78
2023/08/31 01:27:40;;;;;;;;;;;;;;;;;;4844625;29;19968;-78
2023/08/31 01:30:05;;;;;;;;;;;;;;;;;;4863010;29;19975;-78
2023/08/31 01:32:31;;;;;;;;;;;;;;;;;;4864517;29;19920;-78
2023/08/31 01:34:57;;;;;;;;;;;;;;;;;;4846563;29;19924;-78
2023/08/31 01:37:28;;;;;;;;;;;;;;;;;;4863260;29;19971;-78
2023/08/31 01:39:55;;;;;;;;;;;;;;;;;;4868154;29;20018;-78
2023/08/31 01:42:21;;;;;;;;;;;;;;;;;;4840831;29;20052;-78
2023/08/31 01:44:48;;;;;;;;;;;;;;;;;;4846691;29;20018;-78
2023/08/31 01:47:13;;;;;;;;;;;;;;;;;;4863425;29;19972;-78
2023/08/31 01:49:39;;;;;;;;;;;;;;;;;;4867617;29;20365;-78
2023/08/31 01:52:04;;;;;;;;;;;;;;;;;;4866151;29;20007;-78
2023/08/31 01:54:29;;;;;;;;;;;;;;;;;;4863495;29;19920;-79
2023/08/31 01:56:55;;;;;;;;;;;;;;;;;;4845007;29;19963;-78
2023/08/31 01:59:20;;;;;;;;;;;;;;;;;;4864503;29;19976;-78
2023/08/31 02:01:45;;;;;;;;;;;;;;;;;;4863516;29;19959;-78
2023/08/31 02:04:11;;;;;;;;;;;;;;;;;;4845895;29;19926;-78
2023/08/31 02:06:36;;;;;;;;;;;;;;;;;;4847261;29;19963;-78
2023/08/31 02:09:01;;;;;;;;;;;;;;;;;;4866928;29;20284;-79
2023/08/31 02:11:26;;;;;;;;;;;;;;;;;;4847972;29;20166;-79
2023/08/31 02:13:52;;;;;;;;;;;;;;;;;;4867390;29;19915;-78
2023/08/31 02:16:17;;;;;;;;;;;;;;;;;;4848251;29;20773;-78
2023/08/31 02:18:42;;;;;;;;;;;;;;;;;;4845223;29;19952;-79
2023/08/31 02:21:07;;;;;;;;;;;;;;;;;;4846819;29;19922;-78
2023/08/31 02:23:33;;;;;;;;;;;;;;;;;;4840346;29;19966;-78
2023/08/31 02:25:58;;;;;;;;;;;;;;;;;;4851860;29;20388;-78
2023/08/31 02:28:23;;;;;;;;;;;;;;;;;;4849883;29;20709;-79
2023/08/31 02:30:56;;;;;;;;;;;;;;;;;;4854663;29;20020;-78
2023/08/31 02:33:22;;;;;;;;;;;;;;;;;;4869815;29;19962;-79
2023/08/31 02:35:47;;;;;;;;;;;;;;;;;;4852265;29;20642;-78
2023/08/31 02:38:12;;;;;;;;;;;;;;;;;;4843183;29;19968;-78
2023/08/31 02:40:38;;;;;;;;;;;;;;;;;;4842666;29;19943;-79
2023/08/31 02:43:03;;;;;;;;;;;;;;;;;;4849152;29;19943;-78
2023/08/31 02:45:28;;;;;;;;;;;;;;;;;;4843679;29;19920;-79
2023/08/31 02:47:54;;;;;;;;;;;;;;;;;;4858309;29;20047;-78
2023/08/31 02:50:20;;;;;;;;;;;;;;;;;;4862963;29;19927;-79
2023/08/31 02:52:45;;;;;;;;;;;;;;;;;;4864752;29;19935;-78
2023/08/31 02:55:10;;;;;;;;;;;;;;;;;;4848505;29;19920;-78
2023/08/31 02:57:36;;;;;;;;;;;;;;;;;;4863811;29;19983;-78
2023/08/31 03:00:01;;;;;;;;;;;;;;;;;;4848532;29;19971;-79
2023/08/31 03:02:27;;;;;;;;;;;;;;;;;;4871247;29;19938;-79
2023/08/31 03:04:52;;;;;;;;;;;;;;;;;;4852071;29;19942;-79
2023/08/31 03:07:17;;;;;;;;;;;;;;;;;;4860855;29;20650;-79
2023/08/31 03:09:43;;;;;;;;;;;;;;;;;;4853335;29;19966;-78
2023/08/31 03:12:08;;;;;;;;;;;;;;;;;;4860013;29;19927;-78
2023/08/31 03:14:33;;;;;;;;;;;;;;;;;;4861489;29;19998;-78
2023/08/31 03:16:59;;;;;;;;;;;;;;;;;;4852454;29;19926;-78
2023/08/31 03:19:24;;;;;;;;;;;;;;;;;;4875455;29;19959;-79
2023/08/31 03:21:50;;;;;;;;;;;;;;;;;;4858377;29;20066;-79
2023/08/31 03:24:15;;;;;;;;;;;;;;;;;;4860552;29;19958;-78
2023/08/31 03:26:40;;;;;;;;;;;;;;;;;;4871033;29;19927;-78
2023/08/31 03:29:06;;;;;;;;;;;;;;;;;;4850264;29;19930;-78
2023/08/31 03:31:31;;;;;;;;;;;;;;;;;;4853585;29;20254;-78
2023/08/31 03:33:57;;;;;;;;;;;;;;;;;;4871283;29;20040;-78
2023/08/31 03:36:22;;;;;;;;;;;;;;;;;;4866349;29;19926;-78
2023/08/31 03:38:47;;;;;;;;;;;;;;;;;;4849675;29;19990;-78
2023/08/31 03:41:15;;;;;;;;;;;;;;;;;;4852256;29;20041;-78
2023/08/31 03:43:40;;;;;;;;;;;;;;;;;;4863733;29;19924;-78
2023/08/31 03:46:06;;;;;;;;;;;;;;;;;;4855053;29;19923;-77
2023/08/31 03:48:31;;;;;;;;;;;;;;;;;;4850705;29;19920;-79
2023/08/31 03:50:56;;;;;;;;;;;;;;;;;;4853746;29;20424;-78
2023/08/31 03:53:22;;;;;;;;;;;;;;;;;;4871718;29;19919;-77
2023/08/31 03:55:47;;;;;;;;;;;;;;;;;;4850916;29;19919;-78
2023/08/31 03:58:12;;;;;;;;;;;;;;;;;;4857075;29;20648;-78
2023/08/31 04:00:38;;;;;;;;;;;;;;;;;;4850862;29;20384;-78
2023/08/31 04:03:04;;;;;;;;;;;;;;;;;;4874703;29;19927;-78
2023/08/31 04:05:34;;;;;;;;;;;;;;;;;;4866419;29;19923;-78
2023/08/31 04:07:59;;;;;;;;;;;;;;;;;;4852973;29;19915;-83
2023/08/31 04:10:25;;;;;;;;;;;;;;;;;;4845211;29;20344;-82
2023/08/31 04:12:50;;;;;;;;;;;;;;;;;;4845199;29;19930;-80
2023/08/31 04:15:16;;;;;;;;;;;;;;;;;;4846896;29;19916;-80
2023/08/31 04:17:41;;;;;;;;;;;;;;;;;;4866066;29;19923;-81
2023/08/31 04:20:07;;;;;;;;;;;;;;;;;;4870829;29;20345;-81
2023/08/31 04:22:33;;;;;;;;;;;;;;;;;;4849536;29;19927;-80
2023/08/31 04:24:58;;;;;;;;;;;;;;;;;;4855106;29;20272;-80
2023/08/31 04:27:23;;;;;;;;;;;;;;;;;;4851102;29;19927;-81
2023/08/31 04:29:49;;;;;;;;;;;;;;;;;;4874214;29;19923;-81
2023/08/31 04:32:14;;;;;;;;;;;;;;;;;;4865338;29;19920;-82
2023/08/31 04:34:40;;;;;;;;;;;;;;;;;;4854619;29;19923;-81
2023/08/31 04:37:05;;;;;;;;;;;;;;;;;;4870168;29;20342;-82
2023/08/31 04:39:32;;;;;;;;;;;;;;;;;;4873880;29;19915;-81
2023/08/31 04:41:58;;;;;;;;;;;;;;;;;;4876353;29;19919;-81
2023/08/31 04:44:23;;;;;;;;;;;;;;;;;;4880852;29;19995;-81
2023/08/31 04:46:48;;;;;;;;;;;;;;;;;;4849358;29;19915;-82
2023/08/31 04:49:14;;;;;;;;;;;;;;;;;;4871336;29;19969;-82
2023/08/31 04:51:41;;;;;;;;;;;;;;;;;;4855555;29;20280;-80
2023/08/31 04:54:07;;;;;;;;;;;;;;;;;;4871715;29;20453;-81
2023/08/31 04:56:33;;;;;;;;;;;;;;;;;;4871121;29;20005;-81
2023/08/31 04:58:58;;;;;;;;;;;;;;;;;;4849802;29;19915;-81
2023/08/31 05:01:26;;;;;;;;;;;;;;;;;;4845095;29;19982;-87
2023/08/31 05:03:52;;;;;;;;;;;;;;;;;;4858500;29;19919;-82
2023/08/31 05:06:17;;;;;;;;;;;;;;;;;;4869169;29;19927;-80
2023/08/31 05:08:42;;;;;;;;;;;;;;;;;;4848628;29;19915;-81
2023/08/31 05:11:08;;;;;;;;;;;;;;;;;;4870775;29;20011;-80
2023/08/31 05:13:33;;;;;;;;;;;;;;;;;;4857270;29;20364;-85
2023/08/31 05:15:59;;;;;;;;;;;;;;;;;;4859204;29;19920;-85
2023/08/31 05:18:24;;;;;;;;;;;;;;;;;;4853676;29;19970;-85
2023/08/31 05:20:49;;;;;;;;;;;;;;;;;;4854754;29;20372;-86
2023/08/31 05:23:14;;;;;;;;;;;;;;;;;;4874049;29;19916;-83
2023/08/31 05:25:46;;;;;;;;;;;;;;;;;;4857696;29;19962;-85
2023/08/31 05:28:11;;;;;;;;;;;;;;;;;;4860040;29;19966;-86
2023/08/31 05:30:36;;;;;;;;;;;;;;;;;;4850204;29;20010;-85
2023/08/31 05:33:02;;;;;;;;;;;;;;;;;;4850446;29;19919;-85
2023/08/31 05:35:28;;;;;;;;;;;;;;;;;;4849435;29;20380;-84
2023/08/31 05:37:53;;;;;;;;;;;;;;;;;;4851810;29;20015;-86
2023/08/31 05:40:19;;;;;;;;;;;;;;;;;;4853247;29;19919;-85
2023/08/31 05:42:44;;;;;;;;;;;;;;;;;;4851675;29;19927;-84
2023/08/31 05:45:09;;;;;;;;;;;;;;;;;;4850609;29;19923;-85
2023/08/31 05:47:35;;;;;;;;;;;;;;;;;;4850133;29;20055;-85
2023/08/31 05:50:00;;;;;;;;;;;;;;;;;;4850800;29;19919;-85
2023/08/31 05:52:26;;;;;;;;;;;;;;;;;;4852833;29;19923;-84
2023/08/31 05:54:51;;;;;;;;;;;;;;;;;;4865612;29;19919;-85
2023/08/31 05:57:18;;;;;;;;;;;;;;;;;;4852960;29;19942;-85
2023/08/31 05:59:43;;;;;;;;;;;;;;;;;;4872259;29;19971;-85
2023/08/31 06:02:09;;;;;;;;;;;;;;;;;;4854554;29;19974;-86
2023/08/31 06:04:34;;;;;;;;;;;;;;;;;;4856601;29;19927;-84
2023/08/31 06:06:59;;;;;;;;;;;;;;;;;;4844628;29;19963;-85
2023/08/31 06:09:25;;;;;;;;;;;;;;;;;;4862651;29;19924;-84
2023/08/31 06:11:50;;;;;;;;;;;;;;;;;;4857471;29;20018;-85
2023/08/31 06:14:15;;;;;;;;;;;;;;;;;;4857634;29;19920;-83
2023/08/31 06:16:40;;;;;;;;;;;;;;;;;;4875651;29;19998;-85
2023/08/31 06:19:06;;;;;;;;;;;;;;;;;;4859858;29;19923;-85
2023/08/31 06:21:31;;;;;;;;;;;;;;;;;;4853939;29;19916;-85
2023/08/31 06:23:56;;;;;;;;;;;;;;;;;;4856935;29;19919;-84
2023/08/31 06:26:22;;;;;;;;;;;;;;;;;;4869708;29;19927;-85
2023/08/31 06:28:47;;;;;;;;;;;;;;;;;;4846149;29;19922;-84
2023/08/31 06:31:12;;;;;;;;;;;;;;;;;;4839070;29;19931;-84
2023/08/31 06:33:37;;;;;;;;;;;;;;;;;;4832036;29;19981;-86
2023/08/31 06:36:03;;;;;;;;;;;;;;;;;;4861537;29;19920;-84
2023/08/31 06:38:28;;;;;;;;;;;;;;;;;;4853887;29;19967;-85
2023/08/31 06:40:58;;;;;;;;;;;;;;;;;;4855167;29;19919;-84
2023/08/31 06:43:24;;;;;;;;;;;;;;;;;;4852880;29;20328;-84
2023/08/31 06:45:49;;;;;;;;;;;;;;;;;;4845920;29;19919;-86
2023/08/31 06:48:14;;;;;;;;;;;;;;;;;;4857916;29;20392;-85
2023/08/31 06:50:40;;;;;;;;;;;;;;;;;;4855488;29;19927;-87
2023/08/31 06:53:05;;;;;;;;;;;;;;;;;;4849050;29;20014;-86
2023/08/31 06:55:31;;;;;;;;;;;;;;;;;;4861237;29;19919;-86
2023/08/31 06:57:57;;;;;;;;;;;;;;;;;;4866968;29;20272;-86
2023/08/31 07:00:22;;;;;;;;;;;;;;;;;;4857193;29;19926;-85
2023/08/31 07:02:47;;;;;;;;;;;;;;;;;;4845538;29;19928;-87
2023/08/31 07:05:13;;;;;;;;;;;;;;;;;;4867176;29;19923;-87
2023/08/31 07:07:38;;;;;;;;;;;;;;;;;;4868598;29;19957;-86
2023/08/31 07:10:05;;;;;;;;;;;;;;;;;;4847696;29;20561;-86
2023/08/31 07:12:30;;;;;;;;;;;;;;;;;;4858925;29;20492;-87
2023/08/31 07:14:56;;;;;;;;;;;;;;;;;;4855297;29;19923;-85
2023/08/31 07:17:21;;;;;;;;;;;;;;;;;;4851000;29;20006;-86
2023/08/31 07:19:49;;;;;;;;;;;;;;;;;;4857426;29;19971;-87
2023/08/31 07:22:14;;;;;;;;;;;;;;;;;;4875679;29;19919;-87
2023/08/31 07:24:39;;;;;;;;;;;;;;;;;;4868711;29;20358;-85
2023/08/31 07:27:05;;;;;;;;;;;;;;;;;;4860714;29;19919;-86
2023/08/31 07:29:31;;;;;;;;;;;;;;;;;;4863778;29;19920;-84
2023/08/31 07:31:56;;;;;;;;;;;;;;;;;;4858774;29;20399;-86
2023/08/31 07:34:21;;;;;;;;;;;;;;;;;;4875307;29;20348;-86
2023/08/31 07:36:47;;;;;;;;;;;;;;;;;;4855333;29;19926;-86
2023/08/31 07:39:12;;;;;;;;;;;;;;;;;;4862074;29;19915;-85
2023/08/31 07:41:37;;;;;;;;;;;;;;;;;;4853079;29;19982;-86
2023/08/31 07:44:03;;;;;;;;;;;;;;;;;;4871792;29;19938;-85
2023/08/31 07:46:28;;;;;;;;;;;;;;;;;;4872102;29;19920;-86
2023/08/31 07:48:54;;;;;;;;;;;;;;;;;;4855994;29;19995;-86
2023/08/31 07:51:23;;;;;;;;;;;;;;;;;;4840973;29;20335;-85
2023/08/31 07:53:48;;;;;;;;;;;;;;;;;;4853292;29;20443;-85
2023/08/31 07:56:13;;;;;;;;;;;;;;;;;;4854999;29;20006;-86
2023/08/31 07:58:39;;;;;;;;;;;;;;;;;;4863939;29;19927;-86
2023/08/31 08:01:05;;;;;;;;;;;;;;;;;;4852349;29;19944;-86
2023/08/31 08:03:30;;;;;;;;;;;;;;;;;;4876771;29;20060;-86
2023/08/31 08:05:55;;;;;;;;;;;;;;;;;;4856904;29;20006;-86
2023/08/31 08:08:21;;;;;;;;;;;;;;;;;;4861645;29;20820;-84
2023/08/31 08:10:53;;;;;;;;;;;;;;;;;;4855187;29;19924;-87
2023/08/31 08:13:19;;;;;;;;;;;;;;;;;;4849776;29;19944;-86
2023/08/31 08:15:45;;;;;;;;;;;;;;;;;;4868924;29;19919;-87
2023/08/31 08:18:13;;;;;;;;;;;;;;;;;;4853879;29;19971;-88
2023/08/31 08:20:38;;;;;;;;;;;;;;;;;;4843315;29;19991;-87
2023/08/31 08:23:04;;;;;;;;;;;;;;;;;;4864429;29;19919;-88
2023/08/31 08:25:30;;;;;;;;;;;;;;;;;;4860558;29;19920;-85
2023/08/31 08:27:55;;;;;;;;;;;;;;;;;;4862241;29;20264;-86
2023/08/31 08:30:20;;;;;;;;;;;;;;;;;;4857788;29;20342;-85
2023/08/31 08:32:48;;;;;;;;;;;;;;;;;;4840221;29;19942;-86
2023/08/31 08:35:14;;;;;;;;;;;;;;;;;;4862022;29;19982;-86
2023/08/31 08:37:42;;;;;;;;;;;;;;;;;;4853456;29;19920;-87
2023/08/31 08:40:07;;;;;;;;;;;;;;;;;;4856915;29;19931;-86
2023/08/31 08:42:33;;;;;;;;;;;;;;;;;;4875170;29;19927;-86
2023/08/31 08:44:58;;;;;;;;;;;;;;;;;;4852437;29;19919;-86
2023/08/31 08:47:24;;;;;;;;;;;;;;;;;;4853392;29;19919;-87
2023/08/31 08:49:49;;;;;;;;;;;;;;;;;;4853833;29;19970;-86
2023/08/31 08:52:15;;;;;;;;;;;;;;;;;;4855288;29;19923;-87
2023/08/31 08:54:40;;;;;;;;;;;;;;;;;;4846753;29;19920;-87
2023/08/31 08:57:05;;;;;;;;;;;;;;;;;;4853757;29;20010;-87
2023/08/31 08:59:31;;;;;;;;;;;;;;;;;;4856536;29;19923;-88
2023/08/31 09:01:56;;;;;;;;;;;;;;;;;;4859490;29;19928;-85
2023/08/31 09:04:22;;;;;;;;;;;;;;;;;;4854123;29;19919;-87
2023/08/31 09:06:47;;;;;;;;;;;;;;;;;;4853968;29;19967;-85
2023/08/31 09:09:12;;;;;;;;;;;;;;;;;;4851867;29;19919;-86
2023/08/31 09:11:38;;;;;;;;;;;;;;;;;;4854453;29;20292;-87
2023/08/31 09:14:19;;;;;;;;;;;;;;;;;;4872867;29;19919;-88
2023/08/31 09:16:46;;;;;;;;;;;;;;;;;;4863816;29;19938;-86
2023/08/31 09:19:21;;;;;;;;;;;;;;;;;;4852995;29;20407;-87
2023/08/31 09:21:49;;;;;;;;;;;;;;;;;;4853794;29;19923;-86
2023/08/31 09:24:17;;;;;;;;;;;;;;;;;;4870094;29;19919;-87
2023/08/31 09:26:48;;;;;;;;;;;;;;;;;;4877812;29;19926;-86
2023/08/31 09:29:13;;;;;;;;;;;;;;;;;;4882338;29;20333;-87
2023/08/31 09:31:46;;;;;;;;;;;;;;;;;;4877528;29;19962;-87
2023/08/31 09:34:11;;;;;;;;;;;;;;;;;;4862162;29;19935;-88
2023/08/31 09:36:39;;;;;;;;;;;;;;;;;;4863762;29;19924;-87
2023/08/31 09:39:09;;;;;;;;;;;;;;;;;;4860342;29;20565;-85
2023/08/31 09:41:34;;;;;;;;;;;;;;;;;;4882007;29;19919;-86
2023/08/31 09:44:16;;;;;;;;;;;;;;;;;;4858063;29;19942;-86
2023/08/31 09:46:41;;;;;;;;;;;;;;;;;;4867169;29;19928;-87
2023/08/31 09:49:07;;;;;;;;;;;;;;;;;;4862263;29;19927;-87
2023/08/31 09:51:32;;;;;;;;;;;;;;;;;;4867013;29;19919;-87
2023/08/31 09:53:57;;;;;;;;;;;;;;;;;;4862111;29;19939;-86
2023/08/31 09:56:25;;;;;;;;;;;;;;;;;;4861822;29;20272;-86
2023/08/31 09:58:50;;;;;;;;;;;;;;;;;;4865653;29;19919;-87
2023/08/31 10:01:16;;;;;;;;;;;;;;;;;;4877634;29;20298;-87
2023/08/31 10:03:41;;;;;;;;;;;;;;;;;;4866519;29;20010;-88
2023/08/31 10:06:07;;;;;;;;;;;;;;;;;;4866837;29;19930;-86
2023/08/31 10:08:33;;;;;;;;;;;;;;;;;;4876542;29;20283;-87
2023/08/31 10:10:59;;;;;;;;;;;;;;;;;;4848791;29;19923;-87
2023/08/31 10:13:24;;;;;;;;;;;;;;;;;;4862788;29;19920;-87
2023/08/31 10:15:50;;;;;;;;;;;;;;;;;;4857941;29;19931;-88
2023/08/31 10:18:16;;;;;;;;;;;;;;;;;;4857125;29;21112;-87
2023/08/31 10:20:45;;;;;;;;;;;;;;;;;;4857561;29;20011;-87
2023/08/31 10:23:10;;;;;;;;;;;;;;;;;;4857637;29;20372;-89
2023/08/31 10:25:56;;;;;;;;;;;;;;;;;;4847657;29;19924;-88
2023/08/31 10:28:22;;;;;;;;;;;;;;;;;;4853039;29;19919;-84
2023/08/31 10:31:14;;;;;;;;;;;;;;;;;;4859730;29;19930;-85
2023/08/31 10:33:41;;;;;;;;;;;;;;;;;;4859795;29;19926;-85
2023/08/31 10:36:16;;;;;;;;;;;;;;;;;;4864985;29;19976;-87
2023/08/31 10:38:41;;;;;;;;;;;;;;;;;;4852759;29;19970;-87
2023/08/31 10:41:09;;;;;;;;;;;;;;;;;;4861044;29;19916;-87
2023/08/31 10:43:51;;;;;;;;;;;;;;;;;;4888418;29;20433;-86
2023/08/31 10:46:17;;;;;;;;;;;;;;;;;;4876791;29;20011;-87
2023/08/31 10:48:54;;;;;;;;;;;;;;;;;;4848337;29;20324;-88
2023/08/31 10:51:29;;;;;;;;;;;;;;;;;;4860401;29;19924;-87
2023/08/31 10:54:15;;;;;;;;;;;;;;;;;;4854638;29;19920;-87
2023/08/31 10:56:55;;;;;;;;;;;;;;;;;;4883866;29;20386;-87
2023/08/31 10:59:21;;;;;;;;;;;;;;;;;;4870400;29;20072;-88
2023/08/31 11:01:56;;;;;;;;;;;;;;;;;;4856383;29;20010;-85
2023/08/31 11:04:22;;;;;;;;;;;;;;;;;;4873120;29;19962;-87
2023/08/31 11:06:48;;;;;;;;;;;;;;;;;;4864386;29;20398;-87
2023/08/31 11:09:18;;;;;;;;;;;;;;;;;;4878664;29;19975;-87
2023/08/31 11:11:43;;;;;;;;;;;;;;;;;;4859491;29;19919;-91
2023/08/31 11:14:08;;;;;;;;;;;;;;;;;;4855311;29;19926;-88
2023/08/31 11:16:34;;;;;;;;;;;;;;;;;;4861879;29;19920;-87
2023/08/31 11:18:59;;;;;;;;;;;;;;;;;;4855739;29;19939;-88
2023/08/31 11:21:24;;;;;;;;;;;;;;;;;;4855807;29;19919;-91
2023/08/31 11:23:50;;;;;;;;;;;;;;;;;;4856176;29;19920;-90
2023/08/31 11:26:15;;;;;;;;;;;;;;;;;;4868367;29;19919;-90
2023/08/31 11:28:43;;;;;;;;;;;;;;;;;;4854673;29;19927;-90
2023/08/31 11:31:11;;;;;;;;;;;;;;;;;;4859702;29;20279;-88
2023/08/31 11:33:37;;;;;;;;;;;;;;;;;;4863135;29;20305;-88
2023/08/31 11:36:03;;;;;;;;;;;;;;;;;;4857989;29;19915;-88
2023/08/31 11:38:28;;;;;;;;;;;;;;;;;;4857889;29;19927;-89
2023/08/31 11:40:57;;;;;;;;;;;;;;;;;;4857798;29;19919;-89
2023/08/31 11:43:22;;;;;;;;;;;;;;;;;;4862940;29;20002;-88
2023/08/31 11:45:47;;;;;;;;;;;;;;;;;;4857087;29;20010;-87
2023/08/31 11:48:13;;;;;;;;;;;;;;;;;;4873459;29;19997;-88
2023/08/31 11:50:39;;;;;;;;;;;;;;;;;;4874310;29;19928;-87
2023/08/31 11:53:04;;;;;;;;;;;;;;;;;;4878413;29;19949;-89
2023/08/31 11:55:33;;;;;;;;;;;;;;;;;;4841278;29;20800;-88
2023/08/31 11:57:58;;;;;;;;;;;;;;;;;;4863669;29;19920;-87
2023/08/31 12:00:24;;;;;;;;;;;;;;;;;;4861621;29;19923;-86
2023/08/31 12:02:57;;;;;;;;;;;;;;;;;;4875073;29;20384;-88
2023/08/31 12:05:22;;;;;;;;;;;;;;;;;;4856683;29;19926;-87
2023/08/31 12:07:52;;;;;;;;;;;;;;;;;;4853637;29;19923;-87
2023/08/31 12:10:17;;;;;;;;;;;;;;;;;;4855078;29;20348;-87
2023/08/31 12:12:43;;;;;;;;;;;;;;;;;;4852205;29;19927;-89
2023/08/31 12:15:08;;;;;;;;;;;;;;;;;;4860729;29;20375;-88
2023/08/31 12:17:38;;;;;;;;;;;;;;;;;;4861578;29;19919;-88
2023/08/31 12:20:06;;;;;;;;;;;;;;;;;;4851700;29;19958;-87
2023/08/31 12:22:32;;;;;;;;;;;;;;;;;;4856554;29;19920;-88
2023/08/31 12:24:57;;;;;;;;;;;;;;;;;;4874596;29;19920;-87
2023/08/31 12:27:22;;;;;;;;;;;;;;;;;;4858814;29;20389;-87
2023/08/31 12:29:48;;;;;;;;;;;;;;;;;;4852082;29;20281;-87
2023/08/31 12:32:13;;;;;;;;;;;;;;;;;;4851149;29;19919;-88
2023/08/31 12:34:39;;;;;;;;;;;;;;;;;;4855154;29;20376;-88
2023/08/31 12:37:04;;;;;;;;;;;;;;;;;;4874518;29;19940;-86
2023/08/31 12:39:29;;;;;;;;;;;;;;;;;;4855938;29;19920;-86
2023/08/31 12:41:55;;;;;;;;;;;;;;;;;;4859243;29;19942;-86
2023/08/31 12:44:21;;;;;;;;;;;;;;;;;;4854661;29;19919;-84
2023/08/31 12:46:47;;;;;;;;;;;;;;;;;;4854723;29;19919;-86
2023/08/31 12:49:12;;;;;;;;;;;;;;;;;;4872049;29;19926;-85
2023/08/31 12:51:37;;;;;;;;;;;;;;;;;;4851677;29;19920;-86
2023/08/31 12:54:03;;;;;;;;;;;;;;;;;;4874374;29;19915;-87
2023/08/31 12:56:29;;;;;;;;;;;;;;;;;;4860105;29;20332;-84
2023/08/31 12:58:54;;;;;;;;;;;;;;;;;;4853526;29;19919;-86
2023/08/31 13:01:20;;;;;;;;;;;;;;;;;;4841737;29;19916;-85
2023/08/31 13:03:52;;;;;;;;;;;;;;;;;;4862985;29;19924;-88
2023/08/31 13:06:18;;;;;;;;;;;;;;;;;;4856996;29;19920;-84
2023/08/31 13:08:44;;;;;;;;;;;;;;;;;;4851243;29;20655;-88
2023/08/31 13:11:09;;;;;;;;;;;;;;;;;;4845062;29;19923;-87
2023/08/31 13:13:35;;;;;;;;;;;;;;;;;;4853870;29;19931;-85
2023/08/31 13:16:00;;;;;;;;;;;;;;;;;;4854479;29;19954;-86
2023/08/31 13:18:31;;;;;;;;;;;;;;;;;;4833563;29;19920;-87
2023/08/31 13:20:56;;;;;;;;;;;;;;;;;;4852235;29;19919;-87
2023/08/31 13:23:22;;;;;;;;;;;;;;;;;;4856102;29;20005;-85
2023/08/31 13:25:47;;;;;;;;;;;;;;;;;;4853902;29;19916;-85
2023/08/31 13:28:13;;;;;;;;;;;;;;;;;;4854939;29;19970;-88
2023/08/31 13:30:38;;;;;;;;;;;;;;;;;;4875849;29;19924;-88
2023/08/31 13:33:04;;;;;;;;;;;;;;;;;;4855999;29;19919;-85
2023/08/31 13:35:29;;;;;;;;;;;;;;;;;;4853795;29;19919;-86
2023/08/31 13:37:55;;;;;;;;;;;;;;;;;;4851471;29;19931;-83
2023/08/31 13:40:20;;;;;;;;;;;;;;;;;;4855719;29;20335;-86
2023/08/31 13:43:02;;;;;;;;;;;;;;;;;;4850880;29;19923;-84
2023/08/31 13:45:28;;;;;;;;;;;;;;;;;;4871973;29;19948;-83
2023/08/31 13:47:53;;;;;;;;;;;;;;;;;;4856719;29;20374;-84
2023/08/31 13:50:18;;;;;;;;;;;;;;;;;;4855856;29;19967;-83
2023/08/31 13:52:44;;;;;;;;;;;;;;;;;;4850287;29;20002;-85
2023/08/31 13:55:09;;;;;;;;;;;;;;;;;;4843769;29;19931;-87
2023/08/31 13:57:35;;;;;;;;;;;;;;;;;;4850863;29;19924;-87
2023/08/31 14:00:00;;;;;;;;;;;;;;;;;;4850391;29;19915;-85
2023/08/31 14:02:26;;;;;;;;;;;;;;;;;;4871022;29;19932;-87
2023/08/31 14:04:51;;;;;;;;;;;;;;;;;;4854231;29;19930;-87
2023/08/31 14:07:16;;;;;;;;;;;;;;;;;;4854534;29;20403;-86
2023/08/31 14:09:41;;;;;;;;;;;;;;;;;;4855323;29;19927;-85
2023/08/31 14:12:07;;;;;;;;;;;;;;;;;;4874904;29;19920;-87
2023/08/31 14:14:32;;;;;;;;;;;;;;;;;;4851723;29;19927;-87
2023/08/31 14:16:57;;;;;;;;;;;;;;;;;;4876897;29;19962;-88
2023/08/31 14:19:23;;;;;;;;;;;;;;;;;;4857595;29;20675;-86
2023/08/31 14:21:48;;;;;;;;;;;;;;;;;;4867373;29;19926;-83
2023/08/31 14:24:15;;;;;;;;;;;;;;;;;;4858333;29;19944;-84
2023/08/31 14:26:41;;;;;;;;;;;;;;;;;;4854286;29;19971;-83
2023/08/31 14:29:06;;;;;;;;;;;;;;;;;;4875568;29;19924;-85
2023/08/31 14:31:31;;;;;;;;;;;;;;;;;;4853526;29;19924;-80
2023/08/31 14:33:56;;;;;;;;;;;;;;;;;;4847388;29;19919;-82
2023/08/31 14:36:22;;;;;;;;;;;;;;;;;;4856558;29;19975;-82
2023/08/31 14:38:49;;;;;;;;;;;;;;;;;;4856354;29;19927;-84
2023/08/31 14:41:17;;;;;;;;;;;;;;;;;;4849689;29;19919;-84
2023/08/31 14:43:44;;;;;;;;;;;;;;;;;;4873050;29;20280;-83
2023/08/31 14:46:10;;;;;;;;;;;;;;;;;;4877058;29;19920;-84
2023/08/31 14:48:35;;;;;;;;;;;;;;;;;;4853366;29;19923;-83
2023/08/31 14:51:00;;;;;;;;;;;;;;;;;;4853370;29;19923;-86
2023/08/31 14:53:26;;;;;;;;;;;;;;;;;;4878269;29;19915;-85
2023/08/31 14:55:51;;;;;;;;;;;;;;;;;;4854751;29;19920;-84
2023/08/31 14:58:20;;;;;;;;;;;;;;;;;;4854509;29;19920;-85
2023/08/31 15:00:45;;;;;;;;;;;;;;;;;;4858555;29;19920;-85
2023/08/31 15:03:11;;;;;;;;;;;;;;;;;;4848313;29;20274;-84
2023/08/31 15:05:36;;;;;;;;;;;;;;;;;;4847926;29;19926;-86
2023/08/31 15:08:04;;;;;;;;;;;;;;;;;;4858334;29;19930;-86
2023/08/31 15:10:30;;;;;;;;;;;;;;;;;;4853470;29;20014;-84
2023/08/31 15:12:58;;;;;;;;;;;;;;;;;;4853067;29;19983;-84
2023/08/31 15:15:27;;;;;;;;;;;;;;;;;;4852586;29;19920;-85
2023/08/31 15:17:52;;;;;;;;;;;;;;;;;;4853439;29;19962;-84
2023/08/31 15:20:17;;;;;;;;;;;;;;;;;;4867615;29;19950;-86
2023/08/31 15:22:43;;;;;;;;;;;;;;;;;;4855028;29;19927;-87
2023/08/31 15:25:09;;;;;;;;;;;;;;;;;;4879234;29;20019;-86
2023/08/31 15:27:34;;;;;;;;;;;;;;;;;;4850156;29;19963;-88
2023/08/31 15:29:59;;;;;;;;;;;;;;;;;;4863076;29;19990;-85
2023/08/31 15:32:24;;;;;;;;;;;;;;;;;;4868081;29;20547;-87
2023/08/31 15:34:50;;;;;;;;;;;;;;;;;;4854778;29;19930;-84
2023/08/31 15:37:15;;;;;;;;;;;;;;;;;;4854404;29;19915;-86
2023/08/31 15:39:43;;;;;;;;;;;;;;;;;;4854429;29;19927;-86
2023/08/31 15:42:08;;;;;;;;;;;;;;;;;;4849823;29;19955;-87
2023/08/31 15:44:36;;;;;;;;;;;;;;;;;;4863351;29;20305;-85
2023/08/31 15:47:03;;;;;;;;;;;;;;;;;;4862836;29;20309;-86
2023/08/31 15:49:28;;;;;;;;;;;;;;;;;;4853237;29;19966;-86
2023/08/31 15:51:54;;;;;;;;;;;;;;;;;;4857438;29;20518;-89
2023/08/31 15:54:19;;;;;;;;;;;;;;;;;;4877446;29;20435;-88
2023/08/31 15:56:45;;;;;;;;;;;;;;;;;;4862638;29;19974;-89
2023/08/31 15:59:16;;;;;;;;;;;;;;;;;;4852218;29;19930;-88
2023/08/31 16:01:42;;;;;;;;;;;;;;;;;;4826268;29;19995;-90
2023/08/31 16:04:08;;;;;;;;;;;;;;;;;;4857722;29;20039;-90
2023/08/31 16:06:36;;;;;;;;;;;;;;;;;;4866489;29;19998;-89
2023/08/31 16:09:04;;;;;;;;;;;;;;;;;;4853956;29;19968;-88
2023/08/31 16:11:29;;;;;;;;;;;;;;;;;;4852272;29;20831;-83
2023/08/31 16:13:55;;;;;;;;;;;;;;;;;;4856450;29;19954;-84
2023/08/31 16:16:23;;;;;;;;;;;;;;;;;;4836561;29;19991;-84
2023/08/31 16:18:49;;;;;;;;;;;;;;;;;;4878221;29;19930;-85
2023/08/31 16:21:14;;;;;;;;;;;;;;;;;;4865004;29;19936;-85
2023/08/31 16:23:39;;;;;;;;;;;;;;;;;;4875344;29;19920;-85
2023/08/31 16:26:05;;;;;;;;;;;;;;;;;;4857070;29;20011;-84
2023/08/31 16:28:30;;;;;;;;;;;;;;;;;;4855662;29;19950;-84
2023/08/31 16:30:56;;;;;;;;;;;;;;;;;;4844516;29;20398;-85
2023/08/31 16:33:21;;;;;;;;;;;;;;;;;;4855926;29;20273;-84
2023/08/31 16:35:46;;;;;;;;;;;;;;;;;;4854147;29;19954;-83
2023/08/31 16:38:12;;;;;;;;;;;;;;;;;;4854278;29;20420;-83
2023/08/31 16:40:40;;;;;;;;;;;;;;;;;;4851200;29;20320;-83